sensor_id;sensor_type;location;lat;lon;timestamp;P1;durP1;ratioP1;P2;durP2;ratioP2
14251;SDS011;7210;51.502;10.722;2024-01-10T00:02:01;27.63;;;16.20;;
14251;SDS011;7210;51.502;10.722;2024-01-10T00:04:28;28.17;;;15.77;;
14251;SDS011;7210;51.502;10.722;2024-01-10T00:06:57;35.07;;;18.47;;
14251;SDS011;7210;51.502;10.722;2024-01-10T00:09:24;29.47;;;15.60;;
14251;SDS011;7210;51.502;10.722;2024-01-10T00:11:51;28.73;;;16.23;;
14251;SDS011;7210;51.502;10.722;2024-01-10T00:14:18;30.43;;;15.77;;
14251;SDS011;7210;51.502;10.722;2024-01-10T00:16:45;30.30;;;16.33;;
14251;SDS011;7210;51.502;10.722;2024-01-10T00:19:19;30.03;;;16.13;;
14251;SDS011;7210;51.502;10.722;2024-01-10T00:21:46;34.70;;;17.03;;
14251;SDS011;7210;51.502;10.722;2024-01-10T00:24:14;28.20;;;16.60;;
14251;SDS011;7210;51.502;10.722;2024-01-10T00:26:41;23.60;;;15.03;;
14251;SDS011;7210;51.502;10.722;2024-01-10T00:29:08;28.57;;;17.10;;
14251;SDS011;7210;51.502;10.722;2024-01-10T00:31:35;28.47;;;16.97;;
14251;SDS011;7210;51.502;10.722;2024-01-10T00:34:07;29.47;;;17.50;;
14251;SDS011;7210;51.502;10.722;2024-01-10T00:36:34;31.50;;;18.00;;
14251;SDS011;7210;51.502;10.722;2024-01-10T00:39:07;37.27;;;18.87;;
14251;SDS011;7210;51.502;10.722;2024-01-10T00:41:35;32.47;;;17.53;;
14251;SDS011;7210;51.502;10.722;2024-01-10T00:44:02;31.17;;;19.37;;
14251;SDS011;7210;51.502;10.722;2024-01-10T00:46:29;36.77;;;18.40;;
14251;SDS011;7210;51.502;10.722;2024-01-10T00:48:57;32.90;;;17.23;;
14251;SDS011;7210;51.502;10.722;2024-01-10T00:51:24;30.73;;;17.97;;
14251;SDS011;7210;51.502;10.722;2024-01-10T00:53:51;29.17;;;18.23;;
14251;SDS011;7210;51.502;10.722;2024-01-10T00:56:18;33.67;;;18.10;;
14251;SDS011;7210;51.502;10.722;2024-01-10T00:58:47;31.40;;;16.77;;
14251;SDS011;7210;51.502;10.722;2024-01-10T01:01:14;33.27;;;16.93;;
14251;SDS011;7210;51.502;10.722;2024-01-10T01:03:41;31.10;;;17.67;;
14251;SDS011;7210;51.502;10.722;2024-01-10T01:06:08;28.60;;;16.50;;
14251;SDS011;7210;51.502;10.722;2024-01-10T01:08:35;34.73;;;17.37;;
14251;SDS011;7210;51.502;10.722;2024-01-10T01:11:02;35.63;;;17.77;;
14251;SDS011;7210;51.502;10.722;2024-01-10T01:13:29;32.33;;;17.97;;
14251;SDS011;7210;51.502;10.722;2024-01-10T01:16:02;37.50;;;18.23;;
14251;SDS011;7210;51.502;10.722;2024-01-10T01:18:30;31.97;;;19.10;;
14251;SDS011;7210;51.502;10.722;2024-01-10T01:20:57;32.20;;;17.80;;
14251;SDS011;7210;51.502;10.722;2024-01-10T01:23:25;31.60;;;18.37;;
14251;SDS011;7210;51.502;10.722;2024-01-10T01:25:52;30.83;;;17.57;;
14251;SDS011;7210;51.502;10.722;2024-01-10T01:28:19;34.10;;;17.60;;
14251;SDS011;7210;51.502;10.722;2024-01-10T01:30:46;31.37;;;17.30;;
14251;SDS011;7210;51.502;10.722;2024-01-10T01:33:14;33.23;;;17.43;;
14251;SDS011;7210;51.502;10.722;2024-01-10T01:35:41;32.40;;;18.17;;
14251;SDS011;7210;51.502;10.722;2024-01-10T01:38:08;34.13;;;18.17;;
14251;SDS011;7210;51.502;10.722;2024-01-10T01:40:35;29.60;;;17.37;;
14251;SDS011;7210;51.502;10.722;2024-01-10T01:43:17;34.93;;;17.50;;
14251;SDS011;7210;51.502;10.722;2024-01-10T01:45:47;31.40;;;16.57;;
14251;SDS011;7210;51.502;10.722;2024-01-10T01:48:18;29.23;;;16.33;;
14251;SDS011;7210;51.502;10.722;2024-01-10T01:50:49;26.53;;;16.20;;
14251;SDS011;7210;51.502;10.722;2024-01-10T01:53:20;25.97;;;15.10;;
14251;SDS011;7210;51.502;10.722;2024-01-10T01:55:49;30.10;;;16.03;;
14251;SDS011;7210;51.502;10.722;2024-01-10T01:58:17;27.83;;;15.93;;
14251;SDS011;7210;51.502;10.722;2024-01-10T02:00:44;30.97;;;16.23;;
14251;SDS011;7210;51.502;10.722;2024-01-10T02:03:12;32.90;;;16.37;;
14251;SDS011;7210;51.502;10.722;2024-01-10T02:05:44;28.00;;;16.27;;
14251;SDS011;7210;51.502;10.722;2024-01-10T02:08:13;28.77;;;16.07;;
14251;SDS011;7210;51.502;10.722;2024-01-10T02:10:40;34.00;;;17.90;;
14251;SDS011;7210;51.502;10.722;2024-01-10T02:13:07;30.87;;;17.60;;
14251;SDS011;7210;51.502;10.722;2024-01-10T02:15:36;31.07;;;16.87;;
14251;SDS011;7210;51.502;10.722;2024-01-10T02:18:04;31.23;;;17.60;;
14251;SDS011;7210;51.502;10.722;2024-01-10T02:20:32;30.93;;;16.47;;
14251;SDS011;7210;51.502;10.722;2024-01-10T02:23:00;28.83;;;15.47;;
14251;SDS011;7210;51.502;10.722;2024-01-10T02:25:29;29.33;;;15.87;;
14251;SDS011;7210;51.502;10.722;2024-01-10T02:27:56;30.17;;;16.47;;
14251;SDS011;7210;51.502;10.722;2024-01-10T02:30:24;29.83;;;15.50;;
14251;SDS011;7210;51.502;10.722;2024-01-10T02:32:51;30.53;;;16.43;;
14251;SDS011;7210;51.502;10.722;2024-01-10T02:35:18;23.97;;;15.43;;
14251;SDS011;7210;51.502;10.722;2024-01-10T02:37:45;29.80;;;14.83;;
14251;SDS011;7210;51.502;10.722;2024-01-10T02:40:15;29.37;;;15.57;;
14251;SDS011;7210;51.502;10.722;2024-01-10T02:42:43;28.10;;;16.40;;
14251;SDS011;7210;51.502;10.722;2024-01-10T02:45:10;31.00;;;15.80;;
14251;SDS011;7210;51.502;10.722;2024-01-10T02:47:38;28.17;;;16.73;;
14251;SDS011;7210;51.502;10.722;2024-01-10T02:50:05;32.07;;;17.13;;
14251;SDS011;7210;51.502;10.722;2024-01-10T02:52:33;31.27;;;17.43;;
14251;SDS011;7210;51.502;10.722;2024-01-10T02:55:00;32.03;;;16.30;;
14251;SDS011;7210;51.502;10.722;2024-01-10T02:57:27;30.63;;;16.13;;
14251;SDS011;7210;51.502;10.722;2024-01-10T02:59:56;33.63;;;16.97;;
14251;SDS011;7210;51.502;10.722;2024-01-10T03:02:23;33.60;;;16.00;;
14251;SDS011;7210;51.502;10.722;2024-01-10T03:04:50;30.30;;;16.10;;
14251;SDS011;7210;51.502;10.722;2024-01-10T03:07:18;31.67;;;16.33;;
14251;SDS011;7210;51.502;10.722;2024-01-10T03:09:49;31.47;;;16.80;;
14251;SDS011;7210;51.502;10.722;2024-01-10T03:12:18;26.23;;;16.00;;
14251;SDS011;7210;51.502;10.722;2024-01-10T03:15:14;28.03;;;16.40;;
14251;SDS011;7210;51.502;10.722;2024-01-10T03:17:59;29.23;;;16.37;;
14251;SDS011;7210;51.502;10.722;2024-01-10T03:20:43;31.90;;;15.10;;
14251;SDS011;7210;51.502;10.722;2024-01-10T03:23:30;29.33;;;15.23;;
14251;SDS011;7210;51.502;10.722;2024-01-10T03:26:18;32.40;;;15.90;;
14251;SDS011;7210;51.502;10.722;2024-01-10T03:29:07;29.97;;;15.13;;
14251;SDS011;7210;51.502;10.722;2024-01-10T03:31:56;29.60;;;16.13;;
14251;SDS011;7210;51.502;10.722;2024-01-10T03:34:41;28.40;;;16.33;;
14251;SDS011;7210;51.502;10.722;2024-01-10T03:37:25;29.27;;;15.67;;
14251;SDS011;7210;51.502;10.722;2024-01-10T03:40:07;29.70;;;15.93;;
14251;SDS011;7210;51.502;10.722;2024-01-10T03:42:59;28.33;;;15.67;;
14251;SDS011;7210;51.502;10.722;2024-01-10T03:45:37;33.17;;;17.53;;
14251;SDS011;7210;51.502;10.722;2024-01-10T03:48:25;29.23;;;15.70;;
14251;SDS011;7210;51.502;10.722;2024-01-10T03:51:17;33.20;;;16.93;;
14251;SDS011;7210;51.502;10.722;2024-01-10T03:54:17;31.70;;;17.20;;
14251;SDS011;7210;51.502;10.722;2024-01-10T03:57:27;30.77;;;15.37;;
14251;SDS011;7210;51.502;10.722;2024-01-10T04:00:16;30.03;;;15.87;;
14251;SDS011;7210;51.502;10.722;2024-01-10T04:02:54;28.70;;;15.53;;
14251;SDS011;7210;51.502;10.722;2024-01-10T04:05:36;28.00;;;16.37;;
14251;SDS011;7210;51.502;10.722;2024-01-10T04:08:27;32.23;;;15.53;;
14251;SDS011;7210;51.502;10.722;2024-01-10T04:11:11;35.80;;;17.80;;
14251;SDS011;7210;51.502;10.722;2024-01-10T04:14:11;29.97;;;15.60;;
14251;SDS011;7210;51.502;10.722;2024-01-10T04:17:08;31.17;;;16.13;;
14251;SDS011;7210;51.502;10.722;2024-01-10T04:20:09;31.17;;;15.97;;
14251;SDS011;7210;51.502;10.722;2024-01-10T04:23:14;29.60;;;14.77;;
14251;SDS011;7210;51.502;10.722;2024-01-10T04:26:05;30.73;;;16.67;;
14251;SDS011;7210;51.502;10.722;2024-01-10T04:29:02;33.73;;;16.60;;
14251;SDS011;7210;51.502;10.722;2024-01-10T04:31:48;33.77;;;17.00;;
14251;SDS011;7210;51.502;10.722;2024-01-10T04:34:23;30.53;;;17.63;;
14251;SDS011;7210;51.502;10.722;2024-01-10T04:37:08;28.90;;;16.27;;
14251;SDS011;7210;51.502;10.722;2024-01-10T04:39:56;33.53;;;17.80;;
14251;SDS011;7210;51.502;10.722;2024-01-10T04:42:38;31.63;;;16.87;;
14251;SDS011;7210;51.502;10.722;2024-01-10T04:45:21;35.27;;;17.20;;
14251;SDS011;7210;51.502;10.722;2024-01-10T04:48:02;31.07;;;17.13;;
14251;SDS011;7210;51.502;10.722;2024-01-10T04:50:44;34.70;;;17.20;;
14251;SDS011;7210;51.502;10.722;2024-01-10T04:53:34;31.43;;;16.10;;
14251;SDS011;7210;51.502;10.722;2024-01-10T04:56:19;35.17;;;18.27;;
14251;SDS011;7210;51.502;10.722;2024-01-10T04:58:57;37.50;;;20.17;;
14251;SDS011;7210;51.502;10.722;2024-01-10T05:01:24;35.63;;;19.57;;
14251;SDS011;7210;51.502;10.722;2024-01-10T05:03:51;34.60;;;17.93;;
14251;SDS011;7210;51.502;10.722;2024-01-10T05:06:18;39.17;;;20.23;;
14251;SDS011;7210;51.502;10.722;2024-01-10T05:08:45;40.50;;;20.07;;
14251;SDS011;7210;51.502;10.722;2024-01-10T05:11:12;36.87;;;18.87;;
14251;SDS011;7210;51.502;10.722;2024-01-10T05:13:43;35.97;;;20.00;;
14251;SDS011;7210;51.502;10.722;2024-01-10T05:16:10;37.93;;;19.87;;
14251;SDS011;7210;51.502;10.722;2024-01-10T05:18:43;38.20;;;20.40;;
14251;SDS011;7210;51.502;10.722;2024-01-10T05:21:11;38.73;;;20.27;;
14251;SDS011;7210;51.502;10.722;2024-01-10T05:23:38;35.80;;;19.60;;
14251;SDS011;7210;51.502;10.722;2024-01-10T05:26:05;42.80;;;20.03;;
14251;SDS011;7210;51.502;10.722;2024-01-10T05:28:34;40.80;;;19.37;;
14251;SDS011;7210;51.502;10.722;2024-01-10T05:31:01;40.57;;;19.47;;
14251;SDS011;7210;51.502;10.722;2024-01-10T05:33:28;35.50;;;18.07;;
14251;SDS011;7210;51.502;10.722;2024-01-10T05:35:55;37.20;;;20.90;;
14251;SDS011;7210;51.502;10.722;2024-01-10T05:38:23;36.10;;;19.17;;
14251;SDS011;7210;51.502;10.722;2024-01-10T05:40:50;39.00;;;20.27;;
14251;SDS011;7210;51.502;10.722;2024-01-10T05:43:17;39.57;;;19.50;;
14251;SDS011;7210;51.502;10.722;2024-01-10T05:45:46;37.80;;;18.70;;
14251;SDS011;7210;51.502;10.722;2024-01-10T05:48:13;32.20;;;18.37;;
14251;SDS011;7210;51.502;10.722;2024-01-10T05:50:40;34.47;;;19.50;;
14251;SDS011;7210;51.502;10.722;2024-01-10T05:53:08;37.50;;;19.00;;
14251;SDS011;7210;51.502;10.722;2024-01-10T05:55:35;35.90;;;19.37;;
14251;SDS011;7210;51.502;10.722;2024-01-10T05:58:03;36.13;;;18.90;;
14251;SDS011;7210;51.502;10.722;2024-01-10T06:00:30;40.23;;;21.10;;
14251;SDS011;7210;51.502;10.722;2024-01-10T06:02:58;36.60;;;19.23;;
14251;SDS011;7210;51.502;10.722;2024-01-10T06:05:25;39.83;;;20.03;;
14251;SDS011;7210;51.502;10.722;2024-01-10T06:07:52;34.23;;;19.03;;
14251;SDS011;7210;51.502;10.722;2024-01-10T06:10:19;36.17;;;18.93;;
14251;SDS011;7210;51.502;10.722;2024-01-10T06:12:47;33.40;;;18.73;;
14251;SDS011;7210;51.502;10.722;2024-01-10T06:15:14;37.80;;;19.57;;
14251;SDS011;7210;51.502;10.722;2024-01-10T06:17:41;35.93;;;18.93;;
14251;SDS011;7210;51.502;10.722;2024-01-10T06:20:10;37.47;;;19.73;;
14251;SDS011;7210;51.502;10.722;2024-01-10T06:22:37;38.90;;;20.53;;
14251;SDS011;7210;51.502;10.722;2024-01-10T06:25:04;40.40;;;18.80;;
14251;SDS011;7210;51.502;10.722;2024-01-10T06:27:32;37.67;;;19.07;;
14251;SDS011;7210;51.502;10.722;2024-01-10T06:30:00;36.07;;;19.80;;
14251;SDS011;7210;51.502;10.722;2024-01-10T06:32:28;35.53;;;19.20;;
14251;SDS011;7210;51.502;10.722;2024-01-10T06:34:55;35.47;;;18.97;;
14251;SDS011;7210;51.502;10.722;2024-01-10T06:37:27;40.57;;;19.83;;
14251;SDS011;7210;51.502;10.722;2024-01-10T06:39:55;38.83;;;19.40;;
14251;SDS011;7210;51.502;10.722;2024-01-10T06:42:22;39.73;;;19.93;;
14251;SDS011;7210;51.502;10.722;2024-01-10T06:44:49;38.77;;;19.47;;
14251;SDS011;7210;51.502;10.722;2024-01-10T06:47:16;35.23;;;19.93;;
14251;SDS011;7210;51.502;10.722;2024-01-10T06:49:43;37.17;;;20.43;;
14251;SDS011;7210;51.502;10.722;2024-01-10T06:52:11;35.73;;;20.07;;
14251;SDS011;7210;51.502;10.722;2024-01-10T06:54:39;37.70;;;20.70;;
14251;SDS011;7210;51.502;10.722;2024-01-10T06:57:06;38.87;;;20.30;;
14251;SDS011;7210;51.502;10.722;2024-01-10T06:59:34;37.40;;;19.77;;
14251;SDS011;7210;51.502;10.722;2024-01-10T07:02:01;41.00;;;20.87;;
14251;SDS011;7210;51.502;10.722;2024-01-10T07:04:30;40.47;;;21.97;;
14251;SDS011;7210;51.502;10.722;2024-01-10T07:07:15;49.73;;;21.67;;
14251;SDS011;7210;51.502;10.722;2024-01-10T07:09:56;51.17;;;20.47;;
14251;SDS011;7210;51.502;10.722;2024-01-10T07:12:23;41.23;;;21.73;;
14251;SDS011;7210;51.502;10.722;2024-01-10T07:14:51;38.47;;;20.03;;
14251;SDS011;7210;51.502;10.722;2024-01-10T07:17:18;47.33;;;22.63;;
14251;SDS011;7210;51.502;10.722;2024-01-10T07:19:47;43.40;;;22.33;;
14251;SDS011;7210;51.502;10.722;2024-01-10T07:22:14;43.63;;;21.90;;
14251;SDS011;7210;51.502;10.722;2024-01-10T07:24:43;44.50;;;23.73;;
14251;SDS011;7210;51.502;10.722;2024-01-10T07:27:14;38.80;;;21.13;;
14251;SDS011;7210;51.502;10.722;2024-01-10T07:29:41;42.27;;;20.87;;
14251;SDS011;7210;51.502;10.722;2024-01-10T07:32:08;42.17;;;21.87;;
14251;SDS011;7210;51.502;10.722;2024-01-10T07:34:36;44.63;;;23.77;;
14251;SDS011;7210;51.502;10.722;2024-01-10T07:37:03;40.60;;;22.70;;
14251;SDS011;7210;51.502;10.722;2024-01-10T07:39:31;41.40;;;21.33;;
14251;SDS011;7210;51.502;10.722;2024-01-10T07:41:58;42.43;;;21.77;;
14251;SDS011;7210;51.502;10.722;2024-01-10T07:44:29;36.33;;;19.97;;
14251;SDS011;7210;51.502;10.722;2024-01-10T07:46:56;41.43;;;21.50;;
14251;SDS011;7210;51.502;10.722;2024-01-10T07:49:23;40.33;;;21.43;;
14251;SDS011;7210;51.502;10.722;2024-01-10T07:51:51;42.80;;;20.77;;
14251;SDS011;7210;51.502;10.722;2024-01-10T07:54:19;36.17;;;20.57;;
14251;SDS011;7210;51.502;10.722;2024-01-10T07:56:46;41.47;;;20.77;;
14251;SDS011;7210;51.502;10.722;2024-01-10T07:59:13;41.07;;;21.63;;
14251;SDS011;7210;51.502;10.722;2024-01-10T08:01:43;46.03;;;22.20;;
14251;SDS011;7210;51.502;10.722;2024-01-10T08:04:21;42.03;;;22.70;;
14251;SDS011;7210;51.502;10.722;2024-01-10T08:06:49;42.33;;;22.87;;
14251;SDS011;7210;51.502;10.722;2024-01-10T08:09:16;39.83;;;21.37;;
14251;SDS011;7210;51.502;10.722;2024-01-10T08:11:44;43.07;;;23.17;;
14251;SDS011;7210;51.502;10.722;2024-01-10T08:14:11;46.10;;;22.57;;
14251;SDS011;7210;51.502;10.722;2024-01-10T08:16:38;46.57;;;23.67;;
14251;SDS011;7210;51.502;10.722;2024-01-10T08:19:07;51.97;;;25.90;;
14251;SDS011;7210;51.502;10.722;2024-01-10T08:21:35;45.73;;;24.20;;
14251;SDS011;7210;51.502;10.722;2024-01-10T08:24:07;43.17;;;23.40;;
14251;SDS011;7210;51.502;10.722;2024-01-10T08:26:34;50.07;;;25.23;;
14251;SDS011;7210;51.502;10.722;2024-01-10T08:29:03;46.57;;;26.13;;
14251;SDS011;7210;51.502;10.722;2024-01-10T08:31:30;46.83;;;25.57;;
14251;SDS011;7210;51.502;10.722;2024-01-10T08:33:57;53.23;;;29.30;;
14251;SDS011;7210;51.502;10.722;2024-01-10T08:36:26;51.00;;;25.77;;
14251;SDS011;7210;51.502;10.722;2024-01-10T08:38:53;45.77;;;25.70;;
14251;SDS011;7210;51.502;10.722;2024-01-10T08:41:25;48.73;;;26.33;;
14251;SDS011;7210;51.502;10.722;2024-01-10T08:43:52;49.73;;;25.50;;
14251;SDS011;7210;51.502;10.722;2024-01-10T08:46:19;46.67;;;24.97;;
14251;SDS011;7210;51.502;10.722;2024-01-10T08:48:46;50.63;;;26.40;;
14251;SDS011;7210;51.502;10.722;2024-01-10T08:51:14;51.20;;;26.63;;
14251;SDS011;7210;51.502;10.722;2024-01-10T08:53:44;99.07;;;48.83;;
14251;SDS011;7210;51.502;10.722;2024-01-10T08:56:11;68.70;;;36.50;;
14251;SDS011;7210;51.502;10.722;2024-01-10T08:58:43;54.13;;;28.87;;
14251;SDS011;7210;51.502;10.722;2024-01-10T09:01:10;52.33;;;28.10;;
14251;SDS011;7210;51.502;10.722;2024-01-10T09:03:37;45.57;;;26.93;;
14251;SDS011;7210;51.502;10.722;2024-01-10T09:06:04;46.60;;;26.40;;
14251;SDS011;7210;51.502;10.722;2024-01-10T09:08:37;48.03;;;26.50;;
14251;SDS011;7210;51.502;10.722;2024-01-10T09:11:06;48.17;;;25.20;;
14251;SDS011;7210;51.502;10.722;2024-01-10T09:13:34;47.03;;;26.47;;
14251;SDS011;7210;51.502;10.722;2024-01-10T09:16:03;48.30;;;25.73;;
14251;SDS011;7210;51.502;10.722;2024-01-10T09:18:35;48.17;;;27.43;;
14251;SDS011;7210;51.502;10.722;2024-01-10T09:21:22;47.57;;;27.67;;
14251;SDS011;7210;51.502;10.722;2024-01-10T09:24:13;51.70;;;29.47;;
14251;SDS011;7210;51.502;10.722;2024-01-10T09:27:09;47.53;;;25.67;;
14251;SDS011;7210;51.502;10.722;2024-01-10T09:30:18;47.03;;;26.43;;
14251;SDS011;7210;51.502;10.722;2024-01-10T09:32:45;45.87;;;25.97;;
14251;SDS011;7210;51.502;10.722;2024-01-10T09:35:13;53.30;;;28.87;;
14251;SDS011;7210;51.502;10.722;2024-01-10T09:37:40;55.10;;;27.00;;
14251;SDS011;7210;51.502;10.722;2024-01-10T09:40:08;55.77;;;29.57;;
14251;SDS011;7210;51.502;10.722;2024-01-10T09:42:41;50.87;;;28.17;;
14251;SDS011;7210;51.502;10.722;2024-01-10T09:45:10;49.70;;;26.30;;
14251;SDS011;7210;51.502;10.722;2024-01-10T09:47:39;51.90;;;28.90;;
14251;SDS011;7210;51.502;10.722;2024-01-10T09:50:09;50.17;;;27.23;;
14251;SDS011;7210;51.502;10.722;2024-01-10T09:52:58;45.93;;;26.33;;
14251;SDS011;7210;51.502;10.722;2024-01-10T09:58:45;48.33;;;27.67;;
14251;SDS011;7210;51.502;10.722;2024-01-10T10:01:31;50.13;;;28.30;;
14251;SDS011;7210;51.502;10.722;2024-01-10T10:07:07;48.47;;;26.80;;
14251;SDS011;7210;51.502;10.722;2024-01-10T10:09:43;46.17;;;27.00;;
14251;SDS011;7210;51.502;10.722;2024-01-10T10:12:10;48.43;;;27.73;;
14251;SDS011;7210;51.502;10.722;2024-01-10T10:14:50;49.23;;;28.47;;
14251;SDS011;7210;51.502;10.722;2024-01-10T10:17:17;56.47;;;30.07;;
14251;SDS011;7210;51.502;10.722;2024-01-10T10:19:45;50.23;;;29.57;;
14251;SDS011;7210;51.502;10.722;2024-01-10T10:22:12;48.37;;;29.27;;
14251;SDS011;7210;51.502;10.722;2024-01-10T10:24:40;45.40;;;27.57;;
14251;SDS011;7210;51.502;10.722;2024-01-10T10:27:13;52.03;;;28.30;;
14251;SDS011;7210;51.502;10.722;2024-01-10T10:29:45;53.33;;;28.70;;
14251;SDS011;7210;51.502;10.722;2024-01-10T10:35:22;47.67;;;27.77;;
14251;SDS011;7210;51.502;10.722;2024-01-10T10:37:50;50.27;;;28.37;;
14251;SDS011;7210;51.502;10.722;2024-01-10T10:40:19;49.23;;;27.87;;
14251;SDS011;7210;51.502;10.722;2024-01-10T10:42:49;67.07;;;36.40;;
14251;SDS011;7210;51.502;10.722;2024-01-10T10:45:22;52.97;;;30.87;;
14251;SDS011;7210;51.502;10.722;2024-01-10T10:47:53;51.33;;;28.63;;
14251;SDS011;7210;51.502;10.722;2024-01-10T10:50:26;53.00;;;28.70;;
14251;SDS011;7210;51.502;10.722;2024-01-10T10:53:02;53.80;;;29.73;;
14251;SDS011;7210;51.502;10.722;2024-01-10T10:55:30;52.40;;;28.73;;
14251;SDS011;7210;51.502;10.722;2024-01-10T10:58:01;54.20;;;31.00;;
14251;SDS011;7210;51.502;10.722;2024-01-10T11:00:32;48.33;;;28.13;;
14251;SDS011;7210;51.502;10.722;2024-01-10T11:03:00;48.97;;;28.67;;
14251;SDS011;7210;51.502;10.722;2024-01-10T11:05:30;47.17;;;26.80;;
14251;SDS011;7210;51.502;10.722;2024-01-10T11:07:58;53.97;;;30.17;;
14251;SDS011;7210;51.502;10.722;2024-01-10T11:10:37;47.57;;;28.00;;
14251;SDS011;7210;51.502;10.722;2024-01-10T11:13:16;53.77;;;28.10;;
14251;SDS011;7210;51.502;10.722;2024-01-10T11:19:26;53.03;;;29.40;;
14251;SDS011;7210;51.502;10.722;2024-01-10T11:22:22;44.93;;;26.73;;
14251;SDS011;7210;51.502;10.722;2024-01-10T11:25:19;43.20;;;26.23;;
14251;SDS011;7210;51.502;10.722;2024-01-10T11:27:51;46.63;;;26.43;;
14251;SDS011;7210;51.502;10.722;2024-01-10T11:30:29;49.00;;;29.43;;
14251;SDS011;7210;51.502;10.722;2024-01-10T11:33:02;44.97;;;26.40;;
14251;SDS011;7210;51.502;10.722;2024-01-10T11:38:44;46.70;;;27.17;;
14251;SDS011;7210;51.502;10.722;2024-01-10T11:41:20;46.53;;;25.47;;
14251;SDS011;7210;51.502;10.722;2024-01-10T11:47:31;47.27;;;25.33;;
14251;SDS011;7210;51.502;10.722;2024-01-10T11:50:01;46.60;;;25.40;;
14251;SDS011;7210;51.502;10.722;2024-01-10T11:52:43;44.10;;;25.30;;
14251;SDS011;7210;51.502;10.722;2024-01-10T11:58:25;39.43;;;23.20;;
14251;SDS011;7210;51.502;10.722;2024-01-10T12:00:52;41.47;;;24.47;;
14251;SDS011;7210;51.502;10.722;2024-01-10T12:03:19;39.97;;;25.07;;
14251;SDS011;7210;51.502;10.722;2024-01-10T12:05:50;44.33;;;25.27;;
14251;SDS011;7210;51.502;10.722;2024-01-10T12:08:19;42.13;;;24.97;;
14251;SDS011;7210;51.502;10.722;2024-01-10T12:10:46;42.30;;;25.73;;
14251;SDS011;7210;51.502;10.722;2024-01-10T12:13:19;44.73;;;24.73;;
14251;SDS011;7210;51.502;10.722;2024-01-10T12:15:46;41.43;;;23.90;;
14251;SDS011;7210;51.502;10.722;2024-01-10T12:18:14;43.50;;;25.57;;
14251;SDS011;7210;51.502;10.722;2024-01-10T12:20:41;40.53;;;24.80;;
14251;SDS011;7210;51.502;10.722;2024-01-10T12:23:11;41.93;;;26.17;;
14251;SDS011;7210;51.502;10.722;2024-01-10T12:25:38;43.67;;;25.87;;
14251;SDS011;7210;51.502;10.722;2024-01-10T12:28:06;45.37;;;25.40;;
14251;SDS011;7210;51.502;10.722;2024-01-10T12:30:33;45.40;;;26.40;;
14251;SDS011;7210;51.502;10.722;2024-01-10T12:33:00;45.50;;;26.93;;
14251;SDS011;7210;51.502;10.722;2024-01-10T12:35:28;46.50;;;25.80;;
14251;SDS011;7210;51.502;10.722;2024-01-10T12:37:55;46.40;;;26.17;;
14251;SDS011;7210;51.502;10.722;2024-01-10T12:40:24;42.40;;;25.03;;
14251;SDS011;7210;51.502;10.722;2024-01-10T12:43:01;39.43;;;24.00;;
14251;SDS011;7210;51.502;10.722;2024-01-10T12:45:29;38.73;;;24.30;;
14251;SDS011;7210;51.502;10.722;2024-01-10T12:47:56;44.50;;;25.23;;
14251;SDS011;7210;51.502;10.722;2024-01-10T12:50:24;37.03;;;23.27;;
14251;SDS011;7210;51.502;10.722;2024-01-10T12:52:51;40.03;;;23.63;;
14251;SDS011;7210;51.502;10.722;2024-01-10T12:55:19;39.27;;;23.07;;
14251;SDS011;7210;51.502;10.722;2024-01-10T12:57:48;41.47;;;24.40;;
14251;SDS011;7210;51.502;10.722;2024-01-10T13:00:15;36.33;;;23.57;;
14251;SDS011;7210;51.502;10.722;2024-01-10T13:02:44;40.37;;;24.43;;
14251;SDS011;7210;51.502;10.722;2024-01-10T13:05:12;41.57;;;25.43;;
14251;SDS011;7210;51.502;10.722;2024-01-10T13:07:43;46.20;;;26.40;;
14251;SDS011;7210;51.502;10.722;2024-01-10T13:10:12;45.30;;;25.47;;
14251;SDS011;7210;51.502;10.722;2024-01-10T13:12:39;40.20;;;23.40;;
14251;SDS011;7210;51.502;10.722;2024-01-10T13:15:10;38.70;;;24.97;;
14251;SDS011;7210;51.502;10.722;2024-01-10T13:17:37;42.53;;;25.20;;
14251;SDS011;7210;51.502;10.722;2024-01-10T13:20:05;40.77;;;24.50;;
14251;SDS011;7210;51.502;10.722;2024-01-10T13:22:34;39.40;;;24.13;;
14251;SDS011;7210;51.502;10.722;2024-01-10T13:25:02;39.53;;;24.20;;
14251;SDS011;7210;51.502;10.722;2024-01-10T13:27:29;42.67;;;24.70;;
14251;SDS011;7210;51.502;10.722;2024-01-10T13:30:01;43.30;;;25.53;;
14251;SDS011;7210;51.502;10.722;2024-01-10T13:32:32;40.47;;;24.80;;
14251;SDS011;7210;51.502;10.722;2024-01-10T13:34:59;44.07;;;25.27;;
14251;SDS011;7210;51.502;10.722;2024-01-10T13:37:26;41.30;;;24.93;;
14251;SDS011;7210;51.502;10.722;2024-01-10T13:39:54;43.13;;;26.37;;
14251;SDS011;7210;51.502;10.722;2024-01-10T13:42:25;44.07;;;26.17;;
14251;SDS011;7210;51.502;10.722;2024-01-10T13:44:52;45.30;;;26.93;;
14251;SDS011;7210;51.502;10.722;2024-01-10T13:47:19;48.10;;;27.33;;
14251;SDS011;7210;51.502;10.722;2024-01-10T13:49:48;44.53;;;26.83;;
14251;SDS011;7210;51.502;10.722;2024-01-10T13:52:16;45.70;;;26.07;;
14251;SDS011;7210;51.502;10.722;2024-01-10T13:54:43;44.33;;;26.33;;
14251;SDS011;7210;51.502;10.722;2024-01-10T13:57:10;44.27;;;25.13;;
14251;SDS011;7210;51.502;10.722;2024-01-10T13:59:38;45.10;;;26.70;;
14251;SDS011;7210;51.502;10.722;2024-01-10T14:02:06;45.03;;;26.77;;
14251;SDS011;7210;51.502;10.722;2024-01-10T14:04:33;46.83;;;27.57;;
14251;SDS011;7210;51.502;10.722;2024-01-10T14:07:02;45.40;;;28.17;;
14251;SDS011;7210;51.502;10.722;2024-01-10T14:09:30;44.70;;;27.37;;
14251;SDS011;7210;51.502;10.722;2024-01-10T14:11:57;43.43;;;24.97;;
14251;SDS011;7210;51.502;10.722;2024-01-10T14:14:25;45.80;;;27.70;;
14251;SDS011;7210;51.502;10.722;2024-01-10T14:16:52;46.47;;;28.23;;
14251;SDS011;7210;51.502;10.722;2024-01-10T14:19:25;42.77;;;24.47;;
14251;SDS011;7210;51.502;10.722;2024-01-10T14:21:52;43.03;;;27.20;;
14251;SDS011;7210;51.502;10.722;2024-01-10T14:24:20;45.40;;;25.93;;
14251;SDS011;7210;51.502;10.722;2024-01-10T14:26:48;43.17;;;26.97;;
14251;SDS011;7210;51.502;10.722;2024-01-10T14:29:15;40.20;;;24.83;;
14251;SDS011;7210;51.502;10.722;2024-01-10T14:31:42;44.20;;;27.27;;
14251;SDS011;7210;51.502;10.722;2024-01-10T14:34:09;48.23;;;27.70;;
14251;SDS011;7210;51.502;10.722;2024-01-10T14:36:36;42.13;;;27.67;;
14251;SDS011;7210;51.502;10.722;2024-01-10T14:39:04;48.23;;;27.77;;
14251;SDS011;7210;51.502;10.722;2024-01-10T14:41:38;40.20;;;26.70;;
14251;SDS011;7210;51.502;10.722;2024-01-10T14:44:06;43.47;;;26.43;;
14251;SDS011;7210;51.502;10.722;2024-01-10T14:46:37;47.20;;;27.90;;
14251;SDS011;7210;51.502;10.722;2024-01-10T14:49:07;47.63;;;29.23;;
14251;SDS011;7210;51.502;10.722;2024-01-10T14:51:34;43.53;;;27.10;;
14251;SDS011;7210;51.502;10.722;2024-01-10T14:54:01;45.33;;;28.27;;
14251;SDS011;7210;51.502;10.722;2024-01-10T14:56:29;46.60;;;28.13;;
14251;SDS011;7210;51.502;10.722;2024-01-10T14:58:58;44.17;;;27.50;;
14251;SDS011;7210;51.502;10.722;2024-01-10T15:01:25;48.00;;;27.90;;
14251;SDS011;7210;51.502;10.722;2024-01-10T15:03:52;46.03;;;28.37;;
14251;SDS011;7210;51.502;10.722;2024-01-10T15:06:19;49.33;;;29.23;;
14251;SDS011;7210;51.502;10.722;2024-01-10T15:08:47;47.50;;;29.07;;